createdAt,value
2023-01-17T00:02:08.024Z,2.79
2023-01-17T00:04:53.810Z,2.86
2023-01-17T00:07:41.092Z,2.86
2023-01-17T00:10:11.841Z,2.84
2023-01-17T00:12:46.594Z,2.84
2023-01-17T00:15:14.538Z,2.76
2023-01-17T00:17:42.359Z,2.71
2023-01-17T00:20:32.116Z,2.67
2023-01-17T00:23:17.340Z,2.62
2023-01-17T00:26:02.459Z,2.60
2023-01-17T00:28:32.169Z,2.63
2023-01-17T00:30:59.204Z,2.66
2023-01-17T00:33:26.241Z,2.71
2023-01-17T00:35:54.249Z,2.71
2023-01-17T00:38:22.746Z,2.75
2023-01-17T00:40:49.800Z,2.66
2023-01-17T00:43:37.581Z,2.74
2023-01-17T00:46:24.446Z,2.69
2023-01-17T00:49:10.456Z,2.65
2023-01-17T00:51:57.039Z,2.60
2023-01-17T00:54:42.118Z,2.64
2023-01-17T00:57:27.325Z,2.63
2023-01-17T01:00:13.089Z,2.68
2023-01-17T01:03:00.132Z,2.68
2023-01-17T01:05:45.457Z,2.72
2023-01-17T01:08:36.208Z,2.73
2023-01-17T01:11:24.409Z,2.74
2023-01-17T01:14:10.034Z,2.78
2023-01-17T01:16:55.878Z,2.82
2023-01-17T01:19:42.822Z,2.79
2023-01-17T01:22:28.122Z,2.80
2023-01-17T01:25:13.511Z,2.75
2023-01-17T01:27:58.635Z,2.76
2023-01-17T01:30:43.895Z,2.74
2023-01-17T01:33:19.168Z,2.70
2023-01-17T01:35:50.419Z,2.75
2023-01-17T01:38:19.154Z,2.70
2023-01-17T01:40:49.698Z,2.67
2023-01-17T01:43:20.067Z,2.59
2023-01-17T01:45:53.497Z,2.57
2023-01-17T01:48:33.658Z,2.57
2023-01-17T01:51:05.535Z,2.55
2023-01-17T01:53:36.757Z,2.59
2023-01-17T01:56:07.007Z,2.55
2023-01-17T01:58:37.765Z,2.53
2023-01-17T02:01:08.191Z,2.50
2023-01-17T02:03:38.679Z,2.50
2023-01-17T02:06:20.448Z,2.53
2023-01-17T02:08:49.320Z,2.52
2023-01-17T02:11:17.059Z,2.51
2023-01-17T02:13:45.021Z,2.57
2023-01-17T02:16:27.017Z,2.56
2023-01-17T02:19:01.100Z,2.50
2023-01-17T02:21:36.182Z,2.49
2023-01-17T02:24:30.488Z,2.46
2023-01-17T02:27:07.117Z,2.47
2023-01-17T02:30:28.665Z,2.42
2023-01-17T02:33:11.091Z,2.45
2023-01-17T02:35:45.277Z,2.41
2023-01-17T02:38:23.394Z,2.38
2023-01-17T02:40:56.655Z,2.41
2023-01-17T02:43:25.821Z,2.33
2023-01-17T02:45:55.100Z,2.27
2023-01-17T02:48:28.389Z,2.25
2023-01-17T02:51:33.218Z,2.21
2023-01-17T02:54:17.303Z,2.08
2023-01-17T02:56:54.063Z,2.10
2023-01-17T02:59:34.380Z,2.03
2023-01-17T03:02:13.352Z,2.01
2023-01-17T03:04:48.142Z,2.01
2023-01-17T03:07:18.673Z,2.05
2023-01-17T03:09:49.961Z,2.08
2023-01-17T03:12:17.819Z,2.08
2023-01-17T03:14:45.627Z,2.08
2023-01-17T03:17:14.965Z,2.13
2023-01-17T03:19:43.144Z,2.16
2023-01-17T03:22:10.964Z,2.16
2023-01-17T03:24:38.747Z,2.24
2023-01-17T03:27:06.538Z,2.25
2023-01-17T03:29:34.391Z,2.26
2023-01-17T03:32:02.196Z,2.23
2023-01-17T03:34:31.356Z,2.18
2023-01-17T03:36:59.187Z,2.22
2023-01-17T03:39:27.021Z,2.23
2023-01-17T03:41:54.847Z,2.22
2023-01-17T03:44:22.632Z,2.23
2023-01-17T03:46:50.461Z,2.23
2023-01-17T03:49:18.460Z,2.27
2023-01-17T03:51:47.625Z,2.23
2023-01-17T03:54:15.650Z,2.23
2023-01-17T03:56:43.587Z,2.17
2023-01-17T03:59:13.131Z,2.17
2023-01-17T04:01:41.516Z,2.25
2023-01-17T04:04:09.479Z,2.13
2023-01-17T04:06:37.286Z,2.14
2023-01-17T04:09:06.476Z,2.14
2023-01-17T04:11:34.407Z,2.15
2023-01-17T04:14:02.175Z,2.10
2023-01-17T04:16:31.998Z,2.12
2023-01-17T04:18:59.831Z,2.12
2023-01-17T04:21:27.685Z,2.14
2023-01-17T04:23:55.504Z,2.14
2023-01-17T04:26:24.699Z,2.17
2023-01-17T04:28:52.544Z,2.17
2023-01-17T04:31:20.433Z,2.12
2023-01-17T04:33:48.301Z,2.08
2023-01-17T04:36:16.126Z,2.12
2023-01-17T04:38:43.902Z,2.09
2023-01-17T04:41:11.741Z,2.13
2023-01-17T04:43:40.872Z,2.16
2023-01-17T04:46:10.906Z,2.13
2023-01-17T04:48:38.821Z,2.08
2023-01-17T04:51:07.267Z,2.01
2023-01-17T04:53:35.110Z,2.03
2023-01-17T04:56:03.017Z,2.00
2023-01-17T04:58:31.635Z,1.98
2023-01-17T05:01:04.240Z,1.88
2023-01-17T05:03:32.544Z,1.88
2023-01-17T05:06:00.435Z,1.73
2023-01-17T05:08:28.442Z,1.74
2023-01-17T05:10:56.317Z,1.70
2023-01-17T05:13:24.115Z,1.70
2023-01-17T05:15:52.130Z,1.77
2023-01-17T05:18:21.436Z,1.67
2023-01-17T05:20:49.279Z,1.69
2023-01-17T05:23:17.049Z,1.75
2023-01-17T05:25:45.182Z,1.69
2023-01-17T05:28:14.332Z,1.65
2023-01-17T05:30:42.334Z,1.69
2023-01-17T05:33:11.200Z,1.61
2023-01-17T05:35:40.455Z,1.61
2023-01-17T05:38:08.248Z,1.64
2023-01-17T05:40:36.497Z,1.55
2023-01-17T05:43:04.874Z,1.57
2023-01-17T05:45:34.493Z,1.55
2023-01-17T05:48:02.687Z,1.55
2023-01-17T05:50:33.149Z,1.53
2023-01-17T05:53:04.651Z,1.57
2023-01-17T05:55:33.027Z,1.58
2023-01-17T05:58:01.484Z,1.57
2023-01-17T06:00:30.437Z,1.58
2023-01-17T06:02:59.961Z,1.59
2023-01-17T06:05:29.867Z,1.62
2023-01-17T06:07:58.465Z,1.61
2023-01-17T06:10:29.423Z,1.67
2023-01-17T06:13:05.765Z,1.67
2023-01-17T06:15:35.369Z,1.70
2023-01-17T06:18:07.399Z,1.65
2023-01-17T06:20:35.308Z,1.71
2023-01-17T06:23:04.350Z,1.71
2023-01-17T06:25:37.767Z,1.72
2023-01-17T06:28:06.061Z,1.71
2023-01-17T06:30:33.929Z,1.58
2023-01-17T06:33:01.711Z,1.56
2023-01-17T06:35:30.041Z,1.58
2023-01-17T06:37:59.763Z,1.58
2023-01-17T06:40:28.658Z,1.49
2023-01-17T06:43:01.092Z,1.49
2023-01-17T06:45:29.760Z,1.47
2023-01-17T06:47:59.153Z,1.49
2023-01-17T06:50:27.306Z,1.52
2023-01-17T06:52:57.072Z,1.49
2023-01-17T06:55:25.950Z,1.51
2023-01-17T06:57:54.890Z,1.50
2023-01-17T07:00:24.753Z,1.48
2023-01-17T07:02:52.935Z,1.45
2023-01-17T07:05:21.130Z,1.44
2023-01-17T07:07:49.051Z,1.44
2023-01-17T07:10:17.474Z,1.42
2023-01-17T07:12:45.284Z,1.37
2023-01-17T07:15:13.535Z,1.33
2023-01-17T07:17:42.723Z,1.24
2023-01-17T07:20:11.659Z,1.26
2023-01-17T07:22:39.495Z,1.25
2023-01-17T07:25:08.694Z,1.24
2023-01-17T07:27:36.482Z,1.22
2023-01-17T07:30:04.784Z,1.19
2023-01-17T07:32:32.596Z,1.12
2023-01-17T07:35:01.757Z,1.05
2023-01-17T07:37:29.801Z,1.05
2023-01-17T07:39:57.566Z,1.01
2023-01-17T07:42:25.440Z,0.98
2023-01-17T07:44:53.224Z,0.93
2023-01-17T07:47:21.252Z,0.92
2023-01-17T07:49:49.061Z,0.93
2023-01-17T07:52:18.410Z,0.91
2023-01-17T07:54:46.261Z,0.85
2023-01-17T07:57:14.175Z,0.84
2023-01-17T07:59:41.942Z,0.80
2023-01-17T08:02:17.564Z,0.81
2023-01-17T08:04:45.420Z,0.71
2023-01-17T08:07:14.085Z,0.73
2023-01-17T08:09:44.671Z,0.85
2023-01-17T08:12:12.541Z,1.02
2023-01-17T08:14:40.303Z,1.14
2023-01-17T08:17:08.745Z,1.23
2023-01-17T08:19:36.494Z,1.31
2023-01-17T08:22:04.420Z,1.37
2023-01-17T08:24:32.163Z,1.44
2023-01-17T08:27:01.439Z,1.49
2023-01-17T08:29:29.481Z,1.52
2023-01-17T08:31:57.377Z,1.54
2023-01-17T08:34:26.114Z,1.56
2023-01-17T08:36:54.168Z,1.60
2023-01-17T08:39:22.324Z,1.62
2023-01-17T08:41:50.337Z,1.75
2023-01-17T08:44:20.053Z,1.85
2023-01-17T08:46:47.891Z,1.83
2023-01-17T08:49:15.711Z,1.91
2023-01-17T08:51:43.746Z,1.82
2023-01-17T08:54:13.275Z,1.93
2023-01-17T08:56:42.710Z,2.00
2023-01-17T08:59:11.612Z,2.07
2023-01-17T09:01:41.675Z,2.19
2023-01-17T09:04:09.803Z,2.35
2023-01-17T09:06:38.078Z,2.48
2023-01-17T09:09:07.106Z,2.66
2023-01-17T09:11:35.508Z,2.77
2023-01-17T09:14:03.482Z,3.23
2023-01-17T09:16:32.048Z,3.99
2023-01-17T09:19:01.602Z,4.73
2023-01-17T09:21:29.407Z,5.30
2023-01-17T09:23:57.208Z,5.12
2023-01-17T09:26:27.155Z,5.40
2023-01-17T09:28:55.005Z,4.98
2023-01-17T09:31:24.705Z,5.44
2023-01-17T09:33:53.156Z,5.76
2023-01-17T09:36:23.862Z,5.54
2023-01-17T09:38:57.451Z,5.55
2023-01-17T09:41:28.475Z,5.70
2023-01-17T09:44:02.449Z,6.19
2023-01-17T09:46:33.305Z,6.52
2023-01-17T09:49:08.296Z,6.19
2023-01-17T09:51:37.948Z,5.19
2023-01-17T09:54:06.462Z,5.53
2023-01-17T09:56:38.718Z,5.93
2023-01-17T09:59:33.201Z,5.72
2023-01-17T10:02:17.055Z,5.94
2023-01-17T10:05:14.554Z,5.42
2023-01-17T10:07:58.916Z,5.78
2023-01-17T10:10:38.389Z,5.30
2023-01-17T10:13:19.219Z,5.45
2023-01-17T10:16:13.448Z,5.89
2023-01-17T10:18:56.142Z,5.55
2023-01-17T10:21:30.688Z,5.53
2023-01-17T10:24:18.413Z,5.04
2023-01-17T10:26:49.125Z,5.21
2023-01-17T10:29:20.978Z,5.31
2023-01-17T10:31:55.186Z,5.47
2023-01-17T10:34:28.903Z,5.92
2023-01-17T10:37:02.876Z,6.48
2023-01-17T10:39:32.275Z,7.04
2023-01-17T10:42:07.572Z,7.30
2023-01-17T10:44:44.359Z,7.43
2023-01-17T10:47:20.532Z,7.46
2023-01-17T10:49:52.835Z,7.41
2023-01-17T10:52:33.912Z,7.13
2023-01-17T10:55:13.976Z,7.19
2023-01-17T10:57:43.392Z,7.18
2023-01-17T11:00:43.835Z,7.45
2023-01-17T11:03:13.272Z,7.47
2023-01-17T11:05:42.762Z,7.79
2023-01-17T11:08:13.405Z,7.78
2023-01-17T11:10:44.822Z,7.83
2023-01-17T11:13:26.906Z,8.15
2023-01-17T11:15:58.694Z,8.28
2023-01-17T11:18:30.084Z,8.50
2023-01-17T11:21:11.949Z,7.71
2023-01-17T11:23:42.595Z,8.25
2023-01-17T11:26:14.027Z,8.24
2023-01-17T11:28:42.308Z,8.61
2023-01-17T11:31:25.926Z,8.86
2023-01-17T11:34:09.602Z,8.80
2023-01-17T11:36:43.149Z,7.94
2023-01-17T11:39:29.075Z,8.76
2023-01-17T11:41:58.284Z,8.53
2023-01-17T11:44:28.789Z,8.20
2023-01-17T11:47:18.933Z,7.91
2023-01-17T11:49:48.563Z,8.27
2023-01-17T11:52:23.378Z,8.91
2023-01-17T11:54:53.712Z,8.56
2023-01-17T11:57:26.966Z,7.84
2023-01-17T12:00:04.629Z,8.29
2023-01-17T12:02:59.685Z,8.48
2023-01-17T12:05:53.733Z,7.81
2023-01-17T12:08:32.163Z,7.73
2023-01-17T12:11:07.663Z,8.13
2023-01-17T12:14:00.933Z,7.86
2023-01-17T12:16:44.652Z,7.74
2023-01-17T12:19:34.539Z,8.47
2023-01-17T12:22:19.218Z,8.15
2023-01-17T12:25:02.777Z,8.57
2023-01-17T12:27:41.977Z,8.93
2023-01-17T12:30:39.123Z,9.65
2023-01-17T12:33:26.291Z,8.69
2023-01-17T12:35:57.325Z,9.00
2023-01-17T12:38:32.947Z,8.63
2023-01-17T12:41:06.307Z,9.06
2023-01-17T12:43:38.034Z,9.11
2023-01-17T12:46:16.881Z,8.28
2023-01-17T12:48:45.436Z,8.87
2023-01-17T12:51:19.041Z,9.63
2023-01-17T12:53:57.679Z,9.25
2023-01-17T12:56:30.077Z,8.92
2023-01-17T12:59:20.149Z,7.92
2023-01-17T13:01:57.583Z,8.42
2023-01-17T13:04:28.711Z,7.75
2023-01-17T13:07:07.454Z,7.19
2023-01-17T13:09:40.504Z,7.63
2023-01-17T13:12:13.876Z,8.13
2023-01-17T13:14:42.145Z,8.13
2023-01-17T13:17:28.001Z,7.07
2023-01-17T13:20:00.900Z,7.59
2023-01-17T13:22:29.901Z,8.00
2023-01-17T13:25:04.556Z,8.27
2023-01-17T13:27:53.951Z,7.61
2023-01-17T13:30:36.406Z,7.97
2023-01-17T13:33:37.312Z,7.95
2023-01-17T13:36:19.582Z,7.98
2023-01-17T13:39:01.636Z,7.20
2023-01-17T13:41:43.139Z,7.13
2023-01-17T13:44:25.396Z,7.08
2023-01-17T13:46:55.726Z,6.72
2023-01-17T13:49:34.895Z,6.72
2023-01-17T13:52:07.518Z,7.02
2023-01-17T13:54:43.356Z,7.17
2023-01-17T13:57:36.177Z,7.52
2023-01-17T14:00:41.851Z,6.63
2023-01-17T14:03:11.844Z,6.90
2023-01-17T14:05:57.367Z,6.97
2023-01-17T14:08:27.268Z,6.60
2023-01-17T14:11:06.239Z,6.72
2023-01-17T14:13:37.091Z,6.36
2023-01-17T14:16:23.933Z,6.30
2023-01-17T14:18:53.246Z,6.42
2023-01-17T14:21:24.478Z,6.26
2023-01-17T14:24:16.692Z,6.25
2023-01-17T14:26:48.226Z,6.37
2023-01-17T14:29:53.243Z,5.91
2023-01-17T14:32:23.549Z,5.95
2023-01-17T14:34:53.043Z,5.89
2023-01-17T14:37:45.701Z,5.58
2023-01-17T14:40:20.431Z,5.61
2023-01-17T14:42:53.515Z,5.39
2023-01-17T14:45:27.424Z,5.21
2023-01-17T14:47:57.254Z,5.25
2023-01-17T14:50:29.322Z,5.19
2023-01-17T14:53:18.365Z,5.23
2023-01-17T14:55:56.734Z,5.16
2023-01-17T14:58:26.595Z,5.02
2023-01-17T15:00:59.825Z,5.00
2023-01-17T15:03:28.363Z,5.17
2023-01-17T15:05:57.991Z,5.11
2023-01-17T15:08:35.321Z,5.05
2023-01-17T15:11:08.562Z,5.04
2023-01-17T15:13:44.770Z,5.18
2023-01-17T15:16:22.365Z,5.29
2023-01-17T15:18:50.583Z,5.21
2023-01-17T15:21:20.943Z,5.04
2023-01-17T15:23:53.986Z,5.15
2023-01-17T15:26:25.412Z,5.09
2023-01-17T15:28:54.378Z,5.10
2023-01-17T15:31:39.978Z,5.01
2023-01-17T15:34:10.190Z,4.86
2023-01-17T15:36:38.515Z,4.86
2023-01-17T15:39:20.012Z,4.72
2023-01-17T15:41:49.701Z,4.67
2023-01-17T15:44:33.383Z,4.83
2023-01-17T15:47:28.984Z,4.92
2023-01-17T15:49:57.105Z,4.93
2023-01-17T15:52:24.953Z,4.84
2023-01-17T15:54:58.749Z,4.57
2023-01-17T15:57:28.670Z,4.37
2023-01-17T16:00:00.569Z,4.32
2023-01-17T16:02:34.202Z,4.24
2023-01-17T16:05:04.199Z,4.10
2023-01-17T16:07:35.037Z,3.94
2023-01-17T16:10:09.534Z,3.88
2023-01-17T16:12:37.322Z,3.75
2023-01-17T16:15:12.771Z,3.71
2023-01-17T16:17:42.603Z,3.79
2023-01-17T16:20:16.033Z,3.78
2023-01-17T16:22:44.614Z,3.75
2023-01-17T16:25:17.434Z,3.67
2023-01-17T16:27:45.804Z,3.49
2023-01-17T16:30:16.412Z,3.31
2023-01-17T16:32:46.857Z,3.07
2023-01-17T16:35:18.922Z,2.94
2023-01-17T16:37:50.261Z,2.85
2023-01-17T16:40:21.094Z,2.91
2023-01-17T16:42:49.148Z,2.91
2023-01-17T16:45:18.003Z,2.87
2023-01-17T16:47:48.129Z,2.83
2023-01-17T16:50:18.106Z,2.82
2023-01-17T16:52:45.945Z,2.91
2023-01-17T16:55:16.496Z,2.93
2023-01-17T16:57:45.840Z,2.96
2023-01-17T17:00:14.473Z,2.92
2023-01-17T17:02:42.397Z,2.81
2023-01-17T17:05:11.642Z,2.78
2023-01-17T17:07:42.816Z,2.75
2023-01-17T17:10:11.592Z,2.74
2023-01-17T17:12:39.503Z,2.66
2023-01-17T17:15:10.209Z,2.61
2023-01-17T17:17:39.104Z,2.52
2023-01-17T17:20:10.596Z,2.52
2023-01-17T17:22:38.626Z,2.46
2023-01-17T17:25:07.702Z,2.42
2023-01-17T17:27:35.623Z,2.34
2023-01-17T17:30:03.419Z,2.32
2023-01-17T17:32:32.605Z,2.20
2023-01-17T17:35:00.482Z,2.21
2023-01-17T17:37:29.112Z,2.12
2023-01-17T17:39:57.126Z,2.01
2023-01-17T17:42:25.617Z,1.94
2023-01-17T17:44:53.702Z,1.89
2023-01-17T17:47:21.571Z,1.89
2023-01-17T17:49:50.734Z,1.75
2023-01-17T17:52:18.564Z,1.69
2023-01-17T17:54:46.323Z,1.62
2023-01-17T17:57:14.348Z,1.65
2023-01-17T17:59:42.125Z,1.67
2023-01-17T18:02:11.600Z,1.59
2023-01-17T18:04:39.758Z,1.48
2023-01-17T18:07:08.964Z,1.39
2023-01-17T18:09:36.772Z,1.41
2023-01-17T18:12:05.376Z,1.34
2023-01-17T18:14:33.964Z,1.31
2023-01-17T18:17:01.826Z,1.14
2023-01-17T18:19:29.793Z,1.14
2023-01-17T18:21:58.145Z,0.99
2023-01-17T18:24:28.327Z,1.00
2023-01-17T18:26:57.890Z,0.94
2023-01-17T18:29:27.350Z,0.80
2023-01-17T18:31:55.759Z,0.80
2023-01-17T18:34:27.008Z,0.69
2023-01-17T18:36:54.905Z,0.77
2023-01-17T18:39:25.393Z,0.82
2023-01-17T18:41:55.103Z,0.89
2023-01-17T18:44:23.226Z,0.92
2023-01-17T18:46:51.431Z,0.73
2023-01-17T18:49:19.504Z,0.76
2023-01-17T18:51:50.578Z,0.71
2023-01-17T18:54:19.891Z,0.59
2023-01-17T18:56:48.126Z,0.50
2023-01-17T18:59:19.695Z,0.53
2023-01-17T19:01:47.970Z,0.52
2023-01-17T19:04:17.465Z,0.49
2023-01-17T19:06:47.125Z,0.43
2023-01-17T19:09:16.294Z,0.36
2023-01-17T19:11:45.178Z,0.29
2023-01-17T19:14:14.398Z,0.30
2023-01-17T19:16:44.341Z,0.32
2023-01-17T19:19:13.859Z,0.27
2023-01-17T19:21:41.792Z,0.26
2023-01-17T19:24:13.029Z,0.19
2023-01-17T19:26:41.190Z,0.21
2023-01-17T19:29:08.982Z,0.16
2023-01-17T19:31:42.335Z,0.12
2023-01-17T19:34:14.051Z,0.11
2023-01-17T19:36:42.444Z,0.07
2023-01-17T19:39:10.929Z,0.07
2023-01-17T19:41:42.599Z,0.00
2023-01-17T19:44:12.058Z,-0.02
2023-01-17T19:46:39.937Z,-0.01
2023-01-17T19:49:09.445Z,-0.08
2023-01-17T19:51:39.362Z,-0.11
2023-01-17T19:54:08.454Z,-0.22
2023-01-17T19:56:36.680Z,-0.24
2023-01-17T19:59:04.658Z,-0.28
2023-01-17T20:01:34.483Z,-0.35
2023-01-17T20:04:03.223Z,-0.43
2023-01-17T20:06:33.329Z,-0.42
2023-01-17T20:09:02.956Z,-0.40
2023-01-17T20:11:30.811Z,-0.36
2023-01-17T20:14:00.234Z,-0.42
2023-01-17T20:16:30.053Z,-0.49
2023-01-17T20:18:59.144Z,-0.47
2023-01-17T20:21:28.848Z,-0.46
2023-01-17T20:23:58.950Z,-0.46
2023-01-17T20:26:34.508Z,-0.49
2023-01-17T20:29:06.795Z,-0.56
2023-01-17T20:31:38.157Z,-0.58
2023-01-17T20:34:07.213Z,-0.65
2023-01-17T20:36:36.969Z,-0.65
2023-01-17T20:39:06.648Z,-0.68
2023-01-17T20:41:37.821Z,-0.68
2023-01-17T20:44:07.167Z,-0.71
2023-01-17T20:46:40.402Z,-0.74
2023-01-17T20:49:12.969Z,-0.81
2023-01-17T20:51:41.271Z,-0.85
2023-01-17T20:54:13.239Z,-0.97
2023-01-17T20:56:43.281Z,-0.98
2023-01-17T20:59:15.319Z,-0.91
2023-01-17T21:01:44.573Z,-0.88
2023-01-17T21:04:12.956Z,-0.91
2023-01-17T21:06:41.846Z,-1.02
2023-01-17T21:09:12.951Z,-0.99
2023-01-17T21:11:42.247Z,-0.93
2023-01-17T21:14:10.552Z,-0.96
2023-01-17T21:16:38.732Z,-0.95
2023-01-17T21:19:09.114Z,-0.97
2023-01-17T21:21:36.956Z,-1.01
2023-01-17T21:24:05.952Z,-1.06
2023-01-17T21:26:44.493Z,-1.03
2023-01-17T21:29:15.820Z,-1.03
2023-01-17T21:31:45.136Z,-1.00
2023-01-17T21:34:13.615Z,-1.04
2023-01-17T21:36:43.130Z,-1.07
2023-01-17T21:39:13.632Z,-1.03
2023-01-17T21:41:43.134Z,-1.04
2023-01-17T21:44:19.654Z,-1.13
2023-01-17T21:46:48.157Z,-1.09
2023-01-17T21:49:17.109Z,-1.15
2023-01-17T21:52:02.640Z,-1.17
2023-01-17T21:54:48.263Z,-1.19
2023-01-17T21:57:35.188Z,-1.14
2023-01-17T22:00:06.312Z,-1.14
2023-01-17T22:02:39.780Z,-1.22
2023-01-17T22:05:08.753Z,-1.22
2023-01-17T22:07:38.916Z,-1.18
2023-01-17T22:10:08.506Z,-1.10
2023-01-17T22:12:36.607Z,-1.06
2023-01-17T22:15:07.186Z,-1.11
2023-01-17T22:17:38.209Z,-1.02
2023-01-17T22:20:11.485Z,-0.98
2023-01-17T22:22:39.319Z,-0.97
2023-01-17T22:25:09.308Z,-0.97
2023-01-17T22:27:37.360Z,-0.91
2023-01-17T22:30:12.814Z,-0.93
2023-01-17T22:32:40.848Z,-0.95
2023-01-17T22:35:09.648Z,-1.01
2023-01-17T22:37:37.635Z,-1.01
2023-01-17T22:40:06.496Z,-0.96
2023-01-17T22:42:35.151Z,-0.98
2023-01-17T22:47:33.086Z,-0.97
2023-01-17T22:50:00.982Z,-0.94
2023-01-17T22:52:29.119Z,-0.96
2023-01-17T22:54:57.173Z,-1.02
2023-01-17T22:57:25.487Z,-1.04
2023-01-17T22:59:53.773Z,-1.00
2023-01-17T23:02:21.743Z,-1.03
2023-01-17T23:04:51.283Z,-1.13
2023-01-17T23:07:19.119Z,-1.12
2023-01-17T23:09:47.003Z,-1.13
2023-01-17T23:12:14.922Z,-1.05
2023-01-17T23:15:00.541Z,-1.05
2023-01-17T23:17:46.151Z,-1.04
2023-01-17T23:20:15.144Z,-1.04
2023-01-17T23:22:43.236Z,-1.06
2023-01-17T23:25:13.306Z,-1.08
2023-01-17T23:28:00.841Z,-1.10
2023-01-17T23:30:34.526Z,-1.17
2023-01-17T23:33:05.913Z,-1.16
2023-01-17T23:35:41.714Z,-1.22
2023-01-17T23:38:30.043Z,-1.29
2023-01-17T23:41:20.165Z,-1.35
2023-01-17T23:43:51.734Z,-1.42
2023-01-17T23:46:19.753Z,-1.46
2023-01-17T23:48:48.141Z,-1.51
2023-01-17T23:51:17.490Z,-1.51
2023-01-17T23:53:45.351Z,-1.54
2023-01-17T23:56:16.160Z,-1.56
2023-01-17T23:58:44.700Z,-1.58
